Terminal Aerodrome Forecast
Issued by NWS Brownsville, TX

Home | Current Version | Previous Version | Text Only | Print | Product List | Glossary On
Versions: 1 2 3 4 5 6 7 8 9 10 11 12 13 14
000
FTUS44 KBRO 281132
TAFHRL
TAF
KHRL 281132Z 2812/2912 20006KT P6SM SKC
     FM281600 18017G22KT P6SM SKC
     FM290200 16013KT P6SM SKC=

USA.gov is the U.S. government's official web portal to all federal, state and local government web resources and services.